Utah State University
, Logan
Last Weather Update:05/18/2012 10:00:00 AM
Date
ETo
ETc
Rain
Irrigation
Req
Temp
Max
Temp
Min
Temp
Avg
Avg RH
Avg Wind
Avg Solar
inches
inches
incehs
inches
F
F
F
%
%
watts/m2
04/01/2012 0.07" 0.00" 0.02" -0.01" 65.1° 33.7° 42.5° 56.4% 2.8 MPH 124.3w/m2
04/02/2012 0.13" 0.01" 0.00" 0.01" 52.9° 29.3° 40.4° 40.4% 1.6 MPH 280.5w/m2
04/03/2012 0.14" 0.01" 0.00" 0.01" 62.3° 35.0° 47.8° 42.6% 2.5 MPH 275.9w/m2
04/04/2012 0.17" 0.01" 0.00" 0.01" 67.3° 41.4° 51.7° 41.2% 5.2 MPH 273.5w/m2
04/05/2012 0.11" 0.01" 0.00" 0.01" 55.6° 32.0° 43.1° 42.0% 1.4 MPH 229.6w/m2
04/06/2012 0.05" 0.01" 0.23" -0.18" 42.0° 28.1° 34.0° 68.1% 1.5 MPH 120.8w/m2
04/07/2012 0.13" 0.02" 0.00" 0.02" 55.5° 25.7° 40.5° 43.2% 4.5 MPH 271.5w/m2
04/08/2012 0.18" 0.03" 0.00" 0.03" 69.2° 37.0° 51.4° 27.6% 5.0 MPH 287.5w/m2
04/09/2012 0.18" 0.03" 0.00" 0.03" 72.8° 40.2° 55.5° 24.7% 4.8 MPH 272.1w/m2
04/10/2012 0.17" 0.03" 0.00" 0.03" 76.0° 47.4° 59.7° 24.3% 5.1 MPH 231.2w/m2
04/11/2012 0.20" 0.04" 0.08" -0.02" 73.6° 44.3° 56.9° 34.7% 6.4 MPH 245.0w/m2
04/12/2012 0.04" 0.01" 0.51" -0.40" 47.5° 33.8° 40.9° 80.6% 3.1 MPH 90.8w/m2
04/13/2012 0.12" 0.03" 0.05" -0.01" 54.7° 33.8° 42.8° 65.1% 3.0 MPH 238.5w/m2
04/14/2012 0.11" 0.03" 0.00" 0.03" 57.0° 34.1° 45.6° 53.7% 2.3 MPH 206.0w/m2
04/15/2012 0.13" 0.04" 0.00" 0.04" 57.1° 33.7° 45.9° 39.6% 1.6 MPH 248.4w/m2
04/16/2012 0.14" 0.05" 0.00" 0.05" 58.0° 34.7° 46.9° 38.0% 2.5 MPH 255.0w/m2
04/17/2012 0.11" 0.04" 0.01" 0.03" 60.2° 44.8° 51.2° 50.4% 2.9 MPH 189.4w/m2
04/18/2012 0.05" 0.02" 0.31" -0.23" 50.8° 41.6° 47.0° 70.9% 2.7 MPH 80.2w/m2
04/19/2012 0.10" 0.04" 0.02" 0.02" 57.4° 41.2° 48.5° 72.3% 1.1 MPH 183.6w/m2
04/20/2012 0.12" 0.05" 0.00" 0.05" 68.5° 47.6° 55.8° 60.2% 1.4 MPH 192.6w/m2
04/21/2012 0.20" 0.08" 0.00" 0.08" 77.9° 46.2° 60.8° 48.2% 4.5 MPH 306.4w/m2
04/22/2012 0.21" 0.09" 0.00" 0.09" 83.5° 49.7° 65.1° 36.4% 4.8 MPH 289.2w/m2
04/23/2012 0.20" 0.09" 0.00" 0.09" 85.0° 55.7° 67.7° 31.6% 5.3 MPH 253.6w/m2
04/24/2012 0.21" 0.10" 0.00" 0.10" 81.8° 54.4° 67.7° 31.6% 4.8 MPH 282.1w/m2
04/25/2012 0.16" 0.08" 0.01" 0.07" 76.4° 55.8° 64.9° 42.3% 4.2 MPH 203.5w/m2
04/26/2012 0.15" 0.08" 0.55" -0.36" 72.7° 40.1° 60.3° 47.4% 4.7 MPH 169.6w/m2
04/27/2012 0.09" 0.05" 0.18" -0.09" 46.2° 33.6° 40.4° 60.7% 2.7 MPH 197.9w/m2
04/28/2012 0.14" 0.08" 0.00" 0.08" 54.1° 30.1° 41.5° 47.7% 2.7 MPH 282.2w/m2
04/29/2012 0.16" 0.09" 0.00" 0.09" 61.6° 36.2° 48.0° 48.1% 3.6 MPH 306.7w/m2
04/30/2012 0.15" 0.09" 0.00" 0.09" 68.6° 38.5° 54.6° 42.2% 5.5 MPH 187.8w/m2
Totals: 4.10" 1.33" 1.97" -0.24" 85.0° 25.7° 50.6° 47.1% 3.5 MPH 225.8w/m2